sensor_id;sensor_type;location;lat;lon;timestamp;P1;durP1;ratioP1;P2;durP2;ratioP2
5117;SDS011;2578;51.622;7.046;2023-04-03T00:01:02;3.10;;;2.40;;
5117;SDS011;2578;51.622;7.046;2023-04-03T00:03:28;6.30;;;3.50;;
5117;SDS011;2578;51.622;7.046;2023-04-03T00:05:54;2.70;;;1.90;;
5117;SDS011;2578;51.622;7.046;2023-04-03T00:08:20;3.00;;;2.40;;
5117;SDS011;2578;51.622;7.046;2023-04-03T00:10:46;3.20;;;2.60;;
5117;SDS011;2578;51.622;7.046;2023-04-03T00:13:12;2.77;;;2.10;;
5117;SDS011;2578;51.622;7.046;2023-04-03T00:15:38;2.90;;;2.30;;
5117;SDS011;2578;51.622;7.046;2023-04-03T00:18:05;11.37;;;10.30;;
5117;SDS011;2578;51.622;7.046;2023-04-03T00:20:31;2.77;;;2.00;;
5117;SDS011;2578;51.622;7.046;2023-04-03T00:22:58;2.70;;;1.90;;
5117;SDS011;2578;51.622;7.046;2023-04-03T00:25:23;2.80;;;2.00;;
5117;SDS011;2578;51.622;7.046;2023-04-03T00:27:49;35.70;;;4.00;;
5117;SDS011;2578;51.622;7.046;2023-04-03T00:30:16;3.53;;;2.87;;
5117;SDS011;2578;51.622;7.046;2023-04-03T00:32:43;2.77;;;2.00;;
5117;SDS011;2578;51.622;7.046;2023-04-03T00:35:09;3.10;;;2.40;;
5117;SDS011;2578;51.622;7.046;2023-04-03T00:37:35;2.70;;;1.90;;
5117;SDS011;2578;51.622;7.046;2023-04-03T00:40:01;2.80;;;2.00;;
5117;SDS011;2578;51.622;7.046;2023-04-03T00:42:27;4.37;;;2.33;;
5117;SDS011;2578;51.622;7.046;2023-04-03T00:47:21;2.67;;;1.70;;
5117;SDS011;2578;51.622;7.046;2023-04-03T00:49:48;2.60;;;1.60;;
5117;SDS011;2578;51.622;7.046;2023-04-03T00:52:16;2.70;;;1.70;;
5117;SDS011;2578;51.622;7.046;2023-04-03T00:54:44;2.80;;;1.50;;
5117;SDS011;2578;51.622;7.046;2023-04-03T00:57:12;2.60;;;1.50;;
5117;SDS011;2578;51.622;7.046;2023-04-03T00:59:40;2.50;;;1.40;;
5117;SDS011;2578;51.622;7.046;2023-04-03T01:02:09;2.77;;;1.40;;
5117;SDS011;2578;51.622;7.046;2023-04-03T01:04:39;2.50;;;1.40;;
5117;SDS011;2578;51.622;7.046;2023-04-03T01:07:07;2.50;;;1.30;;
5117;SDS011;2578;51.622;7.046;2023-04-03T01:09:41;2.97;;;1.80;;
5117;SDS011;2578;51.622;7.046;2023-04-03T01:14:48;3.67;;;1.50;;
5117;SDS011;2578;51.622;7.046;2023-04-03T01:25:35;2.60;;;1.60;;
5117;SDS011;2578;51.622;7.046;2023-04-03T01:28:03;2.70;;;1.80;;
5117;SDS011;2578;51.622;7.046;2023-04-03T01:30:31;2.63;;;1.70;;
5117;SDS011;2578;51.622;7.046;2023-04-03T01:32:59;3.10;;;2.17;;
5117;SDS011;2578;51.622;7.046;2023-04-03T01:35:25;2.60;;;1.80;;
5117;SDS011;2578;51.622;7.046;2023-04-03T01:37:50;2.60;;;1.80;;
5117;SDS011;2578;51.622;7.046;2023-04-03T01:40:16;2.80;;;2.00;;
5117;SDS011;2578;51.622;7.046;2023-04-03T01:42:42;2.80;;;2.00;;
5117;SDS011;2578;51.622;7.046;2023-04-03T01:45:07;2.90;;;2.40;;
5117;SDS011;2578;51.622;7.046;2023-04-03T01:47:34;3.13;;;2.83;;
5117;SDS011;2578;51.622;7.046;2023-04-03T01:49:59;3.00;;;2.60;;
5117;SDS011;2578;51.622;7.046;2023-04-03T01:52:25;3.27;;;2.97;;
5117;SDS011;2578;51.622;7.046;2023-04-03T01:54:51;3.00;;;2.60;;
5117;SDS011;2578;51.622;7.046;2023-04-03T01:57:16;3.77;;;3.37;;
5117;SDS011;2578;51.622;7.046;2023-04-03T01:59:42;3.10;;;2.80;;
5117;SDS011;2578;51.622;7.046;2023-04-03T02:02:07;3.07;;;2.63;;
5117;SDS011;2578;51.622;7.046;2023-04-03T02:04:33;3.03;;;2.73;;
5117;SDS011;2578;51.622;7.046;2023-04-03T02:06:59;3.00;;;2.60;;
5117;SDS011;2578;51.622;7.046;2023-04-03T02:09:25;3.20;;;2.90;;
5117;SDS011;2578;51.622;7.046;2023-04-03T02:11:51;3.23;;;2.93;;
5117;SDS011;2578;51.622;7.046;2023-04-03T02:14:17;3.30;;;3.00;;
5117;SDS011;2578;51.622;7.046;2023-04-03T02:16:43;3.60;;;3.30;;
5117;SDS011;2578;51.622;7.046;2023-04-03T02:19:09;3.30;;;3.00;;
5117;SDS011;2578;51.622;7.046;2023-04-03T02:21:35;3.53;;;3.23;;
5117;SDS011;2578;51.622;7.046;2023-04-03T02:24:00;3.60;;;3.30;;
5117;SDS011;2578;51.622;7.046;2023-04-03T02:26:26;3.80;;;3.50;;
5117;SDS011;2578;51.622;7.046;2023-04-03T02:28:51;3.70;;;3.40;;
5117;SDS011;2578;51.622;7.046;2023-04-03T02:31:17;4.07;;;3.77;;
5117;SDS011;2578;51.622;7.046;2023-04-03T02:33:43;4.10;;;3.80;;
5117;SDS011;2578;51.622;7.046;2023-04-03T02:36:09;3.70;;;3.40;;
5117;SDS011;2578;51.622;7.046;2023-04-03T02:38:34;5.40;;;3.97;;
5117;SDS011;2578;51.622;7.046;2023-04-03T02:41:01;4.30;;;3.90;;
5117;SDS011;2578;51.622;7.046;2023-04-03T02:43:27;3.40;;;3.10;;
5117;SDS011;2578;51.622;7.046;2023-04-03T02:45:53;3.60;;;3.30;;
5117;SDS011;2578;51.622;7.046;2023-04-03T02:48:19;3.50;;;3.20;;
5117;SDS011;2578;51.622;7.046;2023-04-03T02:50:44;3.30;;;3.00;;
5117;SDS011;2578;51.622;7.046;2023-04-03T02:53:10;3.40;;;3.10;;
5117;SDS011;2578;51.622;7.046;2023-04-03T02:55:35;3.40;;;3.10;;
5117;SDS011;2578;51.622;7.046;2023-04-03T02:58:01;3.50;;;3.20;;
5117;SDS011;2578;51.622;7.046;2023-04-03T03:00:28;3.53;;;3.23;;
5117;SDS011;2578;51.622;7.046;2023-04-03T03:02:54;3.70;;;3.40;;
5117;SDS011;2578;51.622;7.046;2023-04-03T03:05:19;4.07;;;3.77;;
5117;SDS011;2578;51.622;7.046;2023-04-03T03:07:45;3.80;;;3.50;;
5117;SDS011;2578;51.622;7.046;2023-04-03T03:10:10;3.87;;;3.57;;
5117;SDS011;2578;51.622;7.046;2023-04-03T03:12:36;4.00;;;3.70;;
5117;SDS011;2578;51.622;7.046;2023-04-03T03:15:02;4.10;;;3.80;;
5117;SDS011;2578;51.622;7.046;2023-04-03T03:17:27;4.10;;;3.80;;
5117;SDS011;2578;51.622;7.046;2023-04-03T03:19:53;4.00;;;3.70;;
5117;SDS011;2578;51.622;7.046;2023-04-03T03:22:19;4.30;;;4.00;;
5117;SDS011;2578;51.622;7.046;2023-04-03T03:24:45;4.20;;;3.90;;
5117;SDS011;2578;51.622;7.046;2023-04-03T03:27:10;3.97;;;3.67;;
5117;SDS011;2578;51.622;7.046;2023-04-03T03:29:37;3.90;;;3.60;;
5117;SDS011;2578;51.622;7.046;2023-04-03T03:32:02;4.00;;;3.70;;
5117;SDS011;2578;51.622;7.046;2023-04-03T03:34:28;4.00;;;3.70;;
5117;SDS011;2578;51.622;7.046;2023-04-03T03:36:54;3.93;;;3.63;;
5117;SDS011;2578;51.622;7.046;2023-04-03T03:39:20;4.30;;;4.00;;
5117;SDS011;2578;51.622;7.046;2023-04-03T03:41:46;4.63;;;4.23;;
5117;SDS011;2578;51.622;7.046;2023-04-03T03:44:11;4.40;;;4.10;;
5117;SDS011;2578;51.622;7.046;2023-04-03T03:46:37;4.70;;;4.30;;
5117;SDS011;2578;51.622;7.046;2023-04-03T03:49:02;4.60;;;4.20;;
5117;SDS011;2578;51.622;7.046;2023-04-03T03:51:28;4.20;;;3.90;;
5117;SDS011;2578;51.622;7.046;2023-04-03T03:53:53;3.93;;;3.63;;
5117;SDS011;2578;51.622;7.046;2023-04-03T03:56:20;4.00;;;3.70;;
5117;SDS011;2578;51.622;7.046;2023-04-03T03:58:45;3.40;;;3.10;;
5117;SDS011;2578;51.622;7.046;2023-04-03T04:01:11;3.30;;;3.00;;
5117;SDS011;2578;51.622;7.046;2023-04-03T04:03:37;3.30;;;3.00;;
5117;SDS011;2578;51.622;7.046;2023-04-03T04:06:02;3.67;;;3.37;;
5117;SDS011;2578;51.622;7.046;2023-04-03T04:08:28;3.43;;;3.13;;
5117;SDS011;2578;51.622;7.046;2023-04-03T04:10:54;3.40;;;3.10;;
5117;SDS011;2578;51.622;7.046;2023-04-03T04:13:20;3.50;;;3.20;;
5117;SDS011;2578;51.622;7.046;2023-04-03T04:15:46;4.10;;;3.80;;
5117;SDS011;2578;51.622;7.046;2023-04-03T04:18:11;4.13;;;3.83;;
5117;SDS011;2578;51.622;7.046;2023-04-03T04:20:37;4.33;;;4.03;;
5117;SDS011;2578;51.622;7.046;2023-04-03T04:23:02;4.00;;;3.70;;
5117;SDS011;2578;51.622;7.046;2023-04-03T04:25:28;4.10;;;3.80;;
5117;SDS011;2578;51.622;7.046;2023-04-03T04:27:54;3.93;;;3.60;;
5117;SDS011;2578;51.622;7.046;2023-04-03T04:30:19;3.60;;;3.30;;
5117;SDS011;2578;51.622;7.046;2023-04-03T04:32:45;3.80;;;3.50;;
5117;SDS011;2578;51.622;7.046;2023-04-03T04:35:11;5.27;;;4.80;;
5117;SDS011;2578;51.622;7.046;2023-04-03T04:37:37;3.60;;;3.30;;
5117;SDS011;2578;51.622;7.046;2023-04-03T04:40:03;5.07;;;4.60;;
5117;SDS011;2578;51.622;7.046;2023-04-03T04:42:29;3.70;;;3.40;;
5117;SDS011;2578;51.622;7.046;2023-04-03T04:44:54;3.60;;;3.30;;
5117;SDS011;2578;51.622;7.046;2023-04-03T04:47:20;3.40;;;3.10;;
5117;SDS011;2578;51.622;7.046;2023-04-03T04:49:46;3.50;;;3.20;;
5117;SDS011;2578;51.622;7.046;2023-04-03T04:52:12;3.43;;;3.13;;
5117;SDS011;2578;51.622;7.046;2023-04-03T04:54:38;3.10;;;2.80;;
5117;SDS011;2578;51.622;7.046;2023-04-03T04:57:04;3.50;;;3.20;;
5117;SDS011;2578;51.622;7.046;2023-04-03T04:59:29;3.20;;;2.90;;
5117;SDS011;2578;51.622;7.046;2023-04-03T05:01:55;3.97;;;3.57;;
5117;SDS011;2578;51.622;7.046;2023-04-03T05:04:20;3.87;;;3.57;;
5117;SDS011;2578;51.622;7.046;2023-04-03T05:06:46;3.70;;;3.40;;
5117;SDS011;2578;51.622;7.046;2023-04-03T05:09:12;3.70;;;3.40;;
5117;SDS011;2578;51.622;7.046;2023-04-03T05:11:38;3.77;;;3.47;;
5117;SDS011;2578;51.622;7.046;2023-04-03T05:14:03;3.60;;;3.30;;
5117;SDS011;2578;51.622;7.046;2023-04-03T05:16:31;3.20;;;2.90;;
5117;SDS011;2578;51.622;7.046;2023-04-03T05:18:57;3.40;;;3.10;;
5117;SDS011;2578;51.622;7.046;2023-04-03T05:21:23;3.33;;;3.03;;
5117;SDS011;2578;51.622;7.046;2023-04-03T05:23:51;3.60;;;3.30;;
5117;SDS011;2578;51.622;7.046;2023-04-03T05:26:16;3.30;;;3.00;;
5117;SDS011;2578;51.622;7.046;2023-04-03T05:28:42;3.10;;;2.70;;
5117;SDS011;2578;51.622;7.046;2023-04-03T05:31:08;3.07;;;2.77;;
5117;SDS011;2578;51.622;7.046;2023-04-03T05:33:34;3.00;;;2.70;;
5117;SDS011;2578;51.622;7.046;2023-04-03T05:36:05;3.00;;;2.63;;
5117;SDS011;2578;51.622;7.046;2023-04-03T05:38:31;3.40;;;3.10;;
5117;SDS011;2578;51.622;7.046;2023-04-03T05:40:57;3.20;;;2.90;;
5117;SDS011;2578;51.622;7.046;2023-04-03T05:43:23;3.00;;;2.67;;
5117;SDS011;2578;51.622;7.046;2023-04-03T05:45:50;3.00;;;2.67;;
5117;SDS011;2578;51.622;7.046;2023-04-03T05:48:16;3.87;;;2.90;;
5117;SDS011;2578;51.622;7.046;2023-04-03T05:50:42;3.10;;;2.80;;
5117;SDS011;2578;51.622;7.046;2023-04-03T05:53:12;3.00;;;2.70;;
5117;SDS011;2578;51.622;7.046;2023-04-03T05:55:44;3.00;;;2.40;;
5117;SDS011;2578;51.622;7.046;2023-04-03T05:58:10;3.00;;;2.53;;
5117;SDS011;2578;51.622;7.046;2023-04-03T06:00:35;3.20;;;2.90;;
5117;SDS011;2578;51.622;7.046;2023-04-03T06:03:01;3.80;;;3.40;;
5117;SDS011;2578;51.622;7.046;2023-04-03T06:05:27;3.70;;;3.00;;
5117;SDS011;2578;51.622;7.046;2023-04-03T06:07:52;3.40;;;3.10;;
5117;SDS011;2578;51.622;7.046;2023-04-03T06:10:18;3.90;;;3.60;;
5117;SDS011;2578;51.622;7.046;2023-04-03T06:12:45;3.70;;;3.40;;
5117;SDS011;2578;51.622;7.046;2023-04-03T06:15:10;4.10;;;3.80;;
5117;SDS011;2578;51.622;7.046;2023-04-03T06:17:36;4.30;;;4.00;;
5117;SDS011;2578;51.622;7.046;2023-04-03T06:20:03;5.10;;;4.70;;
5117;SDS011;2578;51.622;7.046;2023-04-03T06:22:29;5.50;;;5.10;;
5117;SDS011;2578;51.622;7.046;2023-04-03T06:24:55;6.57;;;6.17;;
5117;SDS011;2578;51.622;7.046;2023-04-03T06:27:21;6.50;;;6.00;;
5117;SDS011;2578;51.622;7.046;2023-04-03T06:29:47;7.57;;;7.07;;
5117;SDS011;2578;51.622;7.046;2023-04-03T06:32:14;9.37;;;8.30;;
5117;SDS011;2578;51.622;7.046;2023-04-03T06:34:40;8.40;;;7.90;;
5117;SDS011;2578;51.622;7.046;2023-04-03T06:37:06;8.60;;;8.10;;
5117;SDS011;2578;51.622;7.046;2023-04-03T06:39:39;9.10;;;8.50;;
5117;SDS011;2578;51.622;7.046;2023-04-03T06:42:05;9.07;;;8.47;;
5117;SDS011;2578;51.622;7.046;2023-04-03T06:44:31;8.67;;;8.17;;
5117;SDS011;2578;51.622;7.046;2023-04-03T06:46:58;8.97;;;8.37;;
5117;SDS011;2578;51.622;7.046;2023-04-03T06:49:24;9.87;;;9.27;;
5117;SDS011;2578;51.622;7.046;2023-04-03T06:51:50;9.40;;;8.80;;
5117;SDS011;2578;51.622;7.046;2023-04-03T06:54:16;10.80;;;10.20;;
5117;SDS011;2578;51.622;7.046;2023-04-03T06:56:42;10.17;;;9.57;;
5117;SDS011;2578;51.622;7.046;2023-04-03T06:59:09;11.10;;;10.40;;
5117;SDS011;2578;51.622;7.046;2023-04-03T07:01:37;11.10;;;10.40;;
5117;SDS011;2578;51.622;7.046;2023-04-03T07:04:03;11.80;;;11.10;;
5117;SDS011;2578;51.622;7.046;2023-04-03T07:06:29;12.30;;;11.60;;
5117;SDS011;2578;51.622;7.046;2023-04-03T07:08:56;12.00;;;11.30;;
5117;SDS011;2578;51.622;7.046;2023-04-03T07:11:21;12.57;;;11.77;;
5117;SDS011;2578;51.622;7.046;2023-04-03T07:13:47;12.50;;;11.80;;
5117;SDS011;2578;51.622;7.046;2023-04-03T07:16:13;11.60;;;10.90;;
5117;SDS011;2578;51.622;7.046;2023-04-03T07:18:39;12.20;;;11.50;;
5117;SDS011;2578;51.622;7.046;2023-04-03T07:21:04;11.70;;;11.00;;
5117;SDS011;2578;51.622;7.046;2023-04-03T07:23:31;13.10;;;12.30;;
5117;SDS011;2578;51.622;7.046;2023-04-03T07:25:56;14.33;;;13.50;;
5117;SDS011;2578;51.622;7.046;2023-04-03T07:28:22;14.70;;;13.70;;
5117;SDS011;2578;51.622;7.046;2023-04-03T07:30:49;15.57;;;14.20;;
5117;SDS011;2578;51.622;7.046;2023-04-03T07:33:17;13.60;;;12.80;;
5117;SDS011;2578;51.622;7.046;2023-04-03T07:35:44;14.97;;;14.07;;
5117;SDS011;2578;51.622;7.046;2023-04-03T07:38:10;16.13;;;15.13;;
5117;SDS011;2578;51.622;7.046;2023-04-03T07:40:37;16.40;;;15.40;;
5117;SDS011;2578;51.622;7.046;2023-04-03T07:43:03;16.00;;;15.00;;
5117;SDS011;2578;51.622;7.046;2023-04-03T07:45:30;16.83;;;15.73;;
5117;SDS011;2578;51.622;7.046;2023-04-03T07:47:56;15.30;;;14.40;;
5117;SDS011;2578;51.622;7.046;2023-04-03T07:50:22;15.77;;;14.77;;
5117;SDS011;2578;51.622;7.046;2023-04-03T07:52:48;16.20;;;15.20;;
5117;SDS011;2578;51.622;7.046;2023-04-03T07:55:15;18.77;;;17.47;;
5117;SDS011;2578;51.622;7.046;2023-04-03T07:57:41;18.50;;;17.30;;
5117;SDS011;2578;51.622;7.046;2023-04-03T08:00:07;18.10;;;16.90;;
5117;SDS011;2578;51.622;7.046;2023-04-03T08:02:34;18.20;;;17.00;;
5117;SDS011;2578;51.622;7.046;2023-04-03T08:04:59;20.73;;;19.07;;
5117;SDS011;2578;51.622;7.046;2023-04-03T08:07:25;20.20;;;18.80;;
5117;SDS011;2578;51.622;7.046;2023-04-03T08:09:51;20.77;;;19.30;;
5117;SDS011;2578;51.622;7.046;2023-04-03T08:12:17;20.50;;;19.10;;
5117;SDS011;2578;51.622;7.046;2023-04-03T08:14:43;22.03;;;20.33;;
5117;SDS011;2578;51.622;7.046;2023-04-03T08:17:09;22.45;;;20.73;;
5117;SDS011;2578;51.622;7.046;2023-04-03T08:19:37;26.17;;;23.63;;
5117;SDS011;2578;51.622;7.046;2023-04-03T08:22:03;22.13;;;20.53;;
5117;SDS011;2578;51.622;7.046;2023-04-03T08:24:30;23.43;;;21.63;;
5117;SDS011;2578;51.622;7.046;2023-04-03T08:26:56;22.50;;;20.70;;
5117;SDS011;2578;51.622;7.046;2023-04-03T08:29:22;22.80;;;21.10;;
5117;SDS011;2578;51.622;7.046;2023-04-03T08:31:49;34.20;;;31.50;;
5117;SDS011;2578;51.622;7.046;2023-04-03T08:34:15;36.03;;;33.23;;
5117;SDS011;2578;51.622;7.046;2023-04-03T08:36:41;39.60;;;36.60;;
5117;SDS011;2578;51.622;7.046;2023-04-03T08:39:07;48.33;;;44.83;;
5117;SDS011;2578;51.622;7.046;2023-04-03T08:41:37;46.53;;;43.23;;
5117;SDS011;2578;51.622;7.046;2023-04-03T08:49:37;40.23;;;37.50;;
5117;SDS011;2578;51.622;7.046;2023-04-03T08:52:12;46.37;;;42.97;;
5117;SDS011;2578;51.622;7.046;2023-04-03T08:54:51;44.93;;;41.53;;
5117;SDS011;2578;51.622;7.046;2023-04-03T08:57:26;42.97;;;39.57;;
5117;SDS011;2578;51.622;7.046;2023-04-03T09:02:52;47.67;;;43.10;;
5117;SDS011;2578;51.622;7.046;2023-04-03T09:05:20;47.33;;;43.73;;
5117;SDS011;2578;51.622;7.046;2023-04-03T09:10:38;48.97;;;45.27;;
5117;SDS011;2578;51.622;7.046;2023-04-03T09:18:57;42.67;;;39.47;;
5117;SDS011;2578;51.622;7.046;2023-04-03T09:21:38;45.27;;;41.67;;
5117;SDS011;2578;51.622;7.046;2023-04-03T09:24:08;43.00;;;39.60;;
5117;SDS011;2578;51.622;7.046;2023-04-03T09:26:39;42.53;;;39.40;;
5117;SDS011;2578;51.622;7.046;2023-04-03T09:29:10;44.70;;;41.10;;
5117;SDS011;2578;51.622;7.046;2023-04-03T09:31:46;43.27;;;39.93;;
5117;SDS011;2578;51.622;7.046;2023-04-03T09:34:17;46.23;;;42.63;;
5117;SDS011;2578;51.622;7.046;2023-04-03T09:36:52;46.53;;;43.03;;
5117;SDS011;2578;51.622;7.046;2023-04-03T09:39:21;43.93;;;40.43;;
5117;SDS011;2578;51.622;7.046;2023-04-03T09:42:22;43.93;;;40.33;;
5117;SDS011;2578;51.622;7.046;2023-04-03T09:44:44;44.60;;;40.90;;
5117;SDS011;2578;51.622;7.046;2023-04-03T09:47:29;46.40;;;42.70;;
5117;SDS011;2578;51.622;7.046;2023-04-03T09:52:38;45.17;;;41.50;;
5117;SDS011;2578;51.622;7.046;2023-04-03T09:55:06;46.03;;;42.43;;
5117;SDS011;2578;51.622;7.046;2023-04-03T09:57:43;46.60;;;43.00;;
5117;SDS011;2578;51.622;7.046;2023-04-03T10:02:55;44.03;;;40.70;;
5117;SDS011;2578;51.622;7.046;2023-04-03T10:08:06;50.90;;;47.10;;
5117;SDS011;2578;51.622;7.046;2023-04-03T10:10:32;47.50;;;44.00;;
5117;SDS011;2578;51.622;7.046;2023-04-03T10:13:09;46.73;;;43.17;;
5117;SDS011;2578;51.622;7.046;2023-04-03T10:15:48;47.97;;;44.27;;
5117;SDS011;2578;51.622;7.046;2023-04-03T10:21:13;44.13;;;40.63;;
5117;SDS011;2578;51.622;7.046;2023-04-03T10:23:53;46.40;;;42.80;;
5117;SDS011;2578;51.622;7.046;2023-04-03T10:29:39;46.70;;;43.10;;
5117;SDS011;2578;51.622;7.046;2023-04-03T10:34:53;52.70;;;48.80;;
5117;SDS011;2578;51.622;7.046;2023-04-03T10:40:39;49.20;;;45.40;;
5117;SDS011;2578;51.622;7.046;2023-04-03T10:43:42;43.87;;;40.87;;
5117;SDS011;2578;51.622;7.046;2023-04-03T10:46:19;41.80;;;38.90;;
5117;SDS011;2578;51.622;7.046;2023-04-03T10:49:14;43.00;;;40.00;;
5117;SDS011;2578;51.622;7.046;2023-04-03T10:52:12;40.70;;;37.70;;
5117;SDS011;2578;51.622;7.046;2023-04-03T10:54:50;44.80;;;41.80;;
5117;SDS011;2578;51.622;7.046;2023-04-03T10:57:19;43.77;;;40.10;;
5117;SDS011;2578;51.622;7.046;2023-04-03T10:59:53;45.10;;;41.50;;
5117;SDS011;2578;51.622;7.046;2023-04-03T11:02:31;45.90;;;42.30;;
5117;SDS011;2578;51.622;7.046;2023-04-03T11:07:54;46.70;;;43.00;;
5117;SDS011;2578;51.622;7.046;2023-04-03T11:10:33;44.87;;;41.37;;
5117;SDS011;2578;51.622;7.046;2023-04-03T11:13:44;43.20;;;39.70;;
5117;SDS011;2578;51.622;7.046;2023-04-03T11:15:53;44.30;;;40.70;;
5117;SDS011;2578;51.622;7.046;2023-04-03T11:18:21;42.70;;;39.30;;
5117;SDS011;2578;51.622;7.046;2023-04-03T11:21:15;45.37;;;41.87;;
5117;SDS011;2578;51.622;7.046;2023-04-03T11:23:41;42.50;;;39.40;;
5117;SDS011;2578;51.622;7.046;2023-04-03T11:26:13;42.20;;;39.10;;
5117;SDS011;2578;51.622;7.046;2023-04-03T11:28:41;42.80;;;39.70;;
5117;SDS011;2578;51.622;7.046;2023-04-03T11:34:15;47.13;;;43.83;;
5117;SDS011;2578;51.622;7.046;2023-04-03T11:37:27;44.17;;;41.17;;
5117;SDS011;2578;51.622;7.046;2023-04-03T11:42:41;42.77;;;39.77;;
5117;SDS011;2578;51.622;7.046;2023-04-03T12:13:37;45.10;;;41.90;;
5117;SDS011;2578;51.622;7.046;2023-04-03T12:16:28;41.97;;;38.87;;
5117;SDS011;2578;51.622;7.046;2023-04-03T12:18:59;42.10;;;39.00;;
5117;SDS011;2578;51.622;7.046;2023-04-03T12:27:00;46.13;;;42.93;;
5117;SDS011;2578;51.622;7.046;2023-04-03T12:29:35;45.00;;;41.90;;
5117;SDS011;2578;51.622;7.046;2023-04-03T12:46:39;35.93;;;33.23;;
5117;SDS011;2578;51.622;7.046;2023-04-03T12:49:23;36.20;;;33.13;;
5117;SDS011;2578;51.622;7.046;2023-04-03T12:52:00;37.00;;;34.20;;
5117;SDS011;2578;51.622;7.046;2023-04-03T12:54:37;34.20;;;31.50;;
5117;SDS011;2578;51.622;7.046;2023-04-03T12:57:12;35.13;;;32.43;;
5117;SDS011;2578;51.622;7.046;2023-04-03T12:59:41;34.63;;;32.00;;
5117;SDS011;2578;51.622;7.046;2023-04-03T13:02:15;34.73;;;31.93;;
5117;SDS011;2578;51.622;7.046;2023-04-03T13:04:48;34.50;;;31.90;;
5117;SDS011;2578;51.622;7.046;2023-04-03T13:07:19;36.83;;;34.07;;
5117;SDS011;2578;51.622;7.046;2023-04-03T13:09:55;36.67;;;33.97;;
5117;SDS011;2578;51.622;7.046;2023-04-03T13:12:25;35.70;;;32.90;;
5117;SDS011;2578;51.622;7.046;2023-04-03T13:14:55;36.00;;;33.30;;
5117;SDS011;2578;51.622;7.046;2023-04-03T13:17:23;33.90;;;31.10;;
5117;SDS011;2578;51.622;7.046;2023-04-03T13:19:49;35.00;;;32.30;;
5117;SDS011;2578;51.622;7.046;2023-04-03T13:24:54;36.70;;;34.00;;
5117;SDS011;2578;51.622;7.046;2023-04-03T13:27:22;35.50;;;32.90;;
5117;SDS011;2578;51.622;7.046;2023-04-03T13:29:49;35.00;;;32.30;;
5117;SDS011;2578;51.622;7.046;2023-04-03T13:32:18;35.97;;;33.17;;
5117;SDS011;2578;51.622;7.046;2023-04-03T13:34:47;36.50;;;33.70;;
5117;SDS011;2578;51.622;7.046;2023-04-03T13:39:56;37.57;;;34.87;;
5117;SDS011;2578;51.622;7.046;2023-04-03T13:42:25;37.30;;;34.50;;
5117;SDS011;2578;51.622;7.046;2023-04-03T13:47:39;35.10;;;32.40;;
5117;SDS011;2578;51.622;7.046;2023-04-03T13:50:18;36.73;;;32.93;;
5117;SDS011;2578;51.622;7.046;2023-04-03T13:53:11;34.00;;;31.40;;
5117;SDS011;2578;51.622;7.046;2023-04-03T13:55:52;37.07;;;34.37;;
5117;SDS011;2578;51.622;7.046;2023-04-03T13:58:22;37.63;;;34.83;;
5117;SDS011;2578;51.622;7.046;2023-04-03T14:03:43;35.90;;;33.20;;
5117;SDS011;2578;51.622;7.046;2023-04-03T14:06:13;34.83;;;32.20;;
5117;SDS011;2578;51.622;7.046;2023-04-03T14:08:41;39.40;;;36.50;;
5117;SDS011;2578;51.622;7.046;2023-04-03T14:11:15;33.87;;;31.27;;
5117;SDS011;2578;51.622;7.046;2023-04-03T14:13:43;35.90;;;33.20;;
5117;SDS011;2578;51.622;7.046;2023-04-03T14:16:18;36.07;;;33.37;;
5117;SDS011;2578;51.622;7.046;2023-04-03T14:18:46;34.50;;;31.80;;
5117;SDS011;2578;51.622;7.046;2023-04-03T14:21:13;37.60;;;34.90;;
5117;SDS011;2578;51.622;7.046;2023-04-03T14:23:40;36.77;;;34.00;;
5117;SDS011;2578;51.622;7.046;2023-04-03T14:26:11;35.00;;;32.40;;
5117;SDS011;2578;51.622;7.046;2023-04-03T14:28:46;34.40;;;31.80;;
5117;SDS011;2578;51.622;7.046;2023-04-03T14:31:13;36.23;;;33.53;;
5117;SDS011;2578;51.622;7.046;2023-04-03T14:33:39;37.10;;;34.40;;
5117;SDS011;2578;51.622;7.046;2023-04-03T14:38:38;35.03;;;32.43;;
5117;SDS011;2578;51.622;7.046;2023-04-03T14:41:04;34.23;;;31.63;;
5117;SDS011;2578;51.622;7.046;2023-04-03T14:43:30;33.70;;;31.10;;
5117;SDS011;2578;51.622;7.046;2023-04-03T14:45:55;35.40;;;32.70;;
5117;SDS011;2578;51.622;7.046;2023-04-03T14:48:23;37.87;;;35.17;;
5117;SDS011;2578;51.622;7.046;2023-04-03T14:50:51;34.00;;;31.40;;
5117;SDS011;2578;51.622;7.046;2023-04-03T14:53:18;33.47;;;30.97;;
5117;SDS011;2578;51.622;7.046;2023-04-03T14:55:47;35.10;;;32.40;;
5117;SDS011;2578;51.622;7.046;2023-04-03T14:58:14;37.00;;;33.87;;
5117;SDS011;2578;51.622;7.046;2023-04-03T15:00:42;36.60;;;34.00;;
5117;SDS011;2578;51.622;7.046;2023-04-03T15:03:14;35.13;;;32.53;;
5117;SDS011;2578;51.622;7.046;2023-04-03T15:05:42;34.80;;;32.30;;
5117;SDS011;2578;51.622;7.046;2023-04-03T15:08:23;35.00;;;32.30;;
5117;SDS011;2578;51.622;7.046;2023-04-03T15:10:50;32.90;;;30.40;;
5117;SDS011;2578;51.622;7.046;2023-04-03T15:13:21;35.20;;;32.70;;
5117;SDS011;2578;51.622;7.046;2023-04-03T15:15:47;38.77;;;36.07;;
5117;SDS011;2578;51.622;7.046;2023-04-03T15:18:21;35.47;;;32.87;;
5117;SDS011;2578;51.622;7.046;2023-04-03T15:20:49;35.00;;;32.40;;
5117;SDS011;2578;51.622;7.046;2023-04-03T15:23:15;35.00;;;32.50;;
5117;SDS011;2578;51.622;7.046;2023-04-03T15:25:44;36.20;;;33.50;;
5117;SDS011;2578;51.622;7.046;2023-04-03T15:28:21;34.07;;;31.57;;
5117;SDS011;2578;51.622;7.046;2023-04-03T15:30:56;31.80;;;29.40;;
5117;SDS011;2578;51.622;7.046;2023-04-03T15:33:22;32.20;;;29.80;;
5117;SDS011;2578;51.622;7.046;2023-04-03T15:35:48;33.13;;;30.63;;
5117;SDS011;2578;51.622;7.046;2023-04-03T15:38:13;32.60;;;30.30;;
5117;SDS011;2578;51.622;7.046;2023-04-03T15:40:39;34.10;;;31.80;;
5117;SDS011;2578;51.622;7.046;2023-04-03T15:43:05;37.50;;;33.97;;
5117;SDS011;2578;51.622;7.046;2023-04-03T15:45:32;35.40;;;32.90;;
5117;SDS011;2578;51.622;7.046;2023-04-03T15:48:00;33.07;;;30.67;;
5117;SDS011;2578;51.622;7.046;2023-04-03T15:50:27;32.40;;;30.00;;
5117;SDS011;2578;51.622;7.046;2023-04-03T15:52:53;34.07;;;31.67;;
5117;SDS011;2578;51.622;7.046;2023-04-03T15:55:23;35.10;;;32.60;;
5117;SDS011;2578;51.622;7.046;2023-04-03T15:57:51;33.47;;;30.87;;
5117;SDS011;2578;51.622;7.046;2023-04-03T16:00:17;33.70;;;31.10;;
5117;SDS011;2578;51.622;7.046;2023-04-03T16:02:45;33.43;;;31.03;;
5117;SDS011;2578;51.622;7.046;2023-04-03T16:05:12;32.10;;;29.80;;
5117;SDS011;2578;51.622;7.046;2023-04-03T16:07:38;30.53;;;28.13;;
5117;SDS011;2578;51.622;7.046;2023-04-03T16:10:05;31.43;;;28.93;;
5117;SDS011;2578;51.622;7.046;2023-04-03T16:12:32;30.93;;;28.53;;
5117;SDS011;2578;51.622;7.046;2023-04-03T16:14:58;30.70;;;28.40;;
5117;SDS011;2578;51.622;7.046;2023-04-03T16:17:24;32.40;;;30.10;;
5117;SDS011;2578;51.622;7.046;2023-04-03T16:19:51;31.17;;;28.97;;
5117;SDS011;2578;51.622;7.046;2023-04-03T16:22:17;32.30;;;29.80;;
5117;SDS011;2578;51.622;7.046;2023-04-03T16:24:42;32.17;;;29.67;;
5117;SDS011;2578;51.622;7.046;2023-04-03T16:27:08;30.40;;;28.10;;
5117;SDS011;2578;51.622;7.046;2023-04-03T16:29:34;30.50;;;28.20;;
5117;SDS011;2578;51.622;7.046;2023-04-03T16:32:00;32.00;;;29.60;;
5117;SDS011;2578;51.622;7.046;2023-04-03T16:34:27;29.23;;;27.03;;
5117;SDS011;2578;51.622;7.046;2023-04-03T16:36:55;29.13;;;26.93;;
5117;SDS011;2578;51.622;7.046;2023-04-03T16:39:20;29.13;;;26.93;;
5117;SDS011;2578;51.622;7.046;2023-04-03T16:41:46;28.53;;;26.33;;
5117;SDS011;2578;51.622;7.046;2023-04-03T16:44:12;28.30;;;26.10;;
5117;SDS011;2578;51.622;7.046;2023-04-03T16:46:38;29.07;;;26.87;;
5117;SDS011;2578;51.622;7.046;2023-04-03T16:49:04;28.93;;;26.83;;
5117;SDS011;2578;51.622;7.046;2023-04-03T16:51:30;28.90;;;26.80;;
5117;SDS011;2578;51.622;7.046;2023-04-03T16:53:56;28.53;;;26.43;;
5117;SDS011;2578;51.622;7.046;2023-04-03T16:56:22;28.50;;;26.30;;
5117;SDS011;2578;51.622;7.046;2023-04-03T16:58:48;29.07;;;26.87;;
5117;SDS011;2578;51.622;7.046;2023-04-03T17:01:15;28.77;;;26.67;;
5117;SDS011;2578;51.622;7.046;2023-04-03T17:03:43;28.50;;;26.30;;
5117;SDS011;2578;51.622;7.046;2023-04-03T17:06:09;28.50;;;26.30;;
5117;SDS011;2578;51.622;7.046;2023-04-03T17:08:41;28.77;;;26.57;;